Terminal Aerodrome Forecast
Issued by NWS Chicago, IL

Home | Current Version | Previous Version | Graphics & Text | Print | Product List | Glossary On
Versions: 1 2 3 4 5 6 7 8 9 10 11 12 13 14 15 16 17 18 19 20 21 22 23 24 25 26 27 28
121
FTUS43 KLOT 291735
TAFRFD
TAF
KRFD 291735Z 2918/3018 03013KT P6SM OVC022
     FM292200 06008KT P6SM SCT025
     FM300900 08012KT P6SM SCT025 BKN180
     FM301400 08013G18KT P6SM VCSH BKN050=

USA.gov is the U.S. government's official web portal to all federal, state and local government web resources and services.